Time;durP1;ratioP1;P1;durP2;ratioP2;P2;SDS_P1;SDS_P2;PMS_P1;PMS_P2;Temp;Humidity;BMP_temperature;BMP_pressure;BME280_temperature;BME280_humidity;BME280_pressure;Samples;Min_cycle;Max_cycle;Signal;HPM_P1;HPM_P2
2022/12/20 00:01:11;;;;;;;27.67;15.57;;;1.90;99.90;;;;;;5034441;28;20173;-88
2022/12/20 00:03:37;;;;;;;27.83;16.47;;;1.90;99.90;;;;;;5016124;28;20171;-87
2022/12/20 00:06:04;;;;;;;27.07;16.00;;;1.90;99.90;;;;;;5016649;28;20227;-87
2022/12/20 00:08:30;;;;;;;34.20;18.17;;;1.90;99.90;;;;;;5034379;28;20201;-87
2022/12/20 00:10:58;;;;;;;29.23;16.40;;;1.90;99.90;;;;;;5033968;28;20176;-88
2022/12/20 00:13:23;;;;;;;29.50;16.13;;;1.90;99.90;;;;;;5033680;28;20202;-87
2022/12/20 00:15:49;;;;;;;28.13;16.00;;;1.90;99.90;;;;;;5015975;28;20583;-88
2022/12/20 00:18:14;;;;;;;30.43;16.93;;;1.90;99.90;;;;;;5016550;28;20236;-87
2022/12/20 00:20:40;;;;;;;29.97;16.37;;;1.90;99.90;;;;;;5016357;28;20228;-87
2022/12/20 00:23:06;;;;;;;29.70;16.80;;;2.00;99.90;;;;;;5015915;28;20175;-87
2022/12/20 00:25:31;;;;;;;28.63;16.30;;;1.90;99.90;;;;;;5016061;28;20227;-87
2022/12/20 00:27:57;;;;;;;26.60;16.07;;;1.90;99.90;;;;;;5016272;28;20179;-87
2022/12/20 00:30:23;;;;;;;30.23;17.07;;;1.90;99.90;;;;;;5016250;28;20230;-87
2022/12/20 00:32:49;;;;;;;31.37;16.97;;;1.90;99.90;;;;;;5015444;28;20262;-87
2022/12/20 00:35:14;;;;;;;29.00;16.47;;;1.90;99.90;;;;;;5016109;28;20241;-87
2022/12/20 00:37:40;;;;;;;28.73;17.47;;;1.90;99.90;;;;;;5016248;28;20267;-87
2022/12/20 00:40:06;;;;;;;30.27;16.70;;;1.90;99.90;;;;;;5016081;28;20172;-87
2022/12/20 00:42:32;;;;;;;30.17;16.97;;;1.90;99.90;;;;;;5015107;28;20171;-87
2022/12/20 00:44:57;;;;;;;28.07;15.70;;;1.80;99.90;;;;;;5033564;28;20200;-87
2022/12/20 00:47:23;;;;;;;26.80;15.57;;;1.90;99.90;;;;;;5015986;28;20272;-87
2022/12/20 00:49:48;;;;;;;31.13;16.80;;;1.90;99.90;;;;;;5015619;28;20661;-87
2022/12/20 00:52:14;;;;;;;28.97;15.67;;;1.80;99.90;;;;;;5015401;28;20234;-85
2022/12/20 00:54:39;;;;;;;27.50;15.10;;;1.80;99.90;;;;;;5033318;28;20214;-88
2022/12/20 00:57:05;;;;;;;28.17;16.53;;;1.90;99.90;;;;;;5015694;28;20539;-88
2022/12/20 00:59:32;;;;;;;27.73;15.70;;;1.90;99.90;;;;;;5015703;28;20241;-87
2022/12/20 01:01:58;;;;;;;26.90;15.87;;;1.90;99.90;;;;;;5033292;28;20180;-87
2022/12/20 01:04:26;;;;;;;31.77;17.43;;;1.90;99.90;;;;;;5015121;28;20184;-87
2022/12/20 01:06:52;;;;;;;32.83;17.07;;;1.90;99.90;;;;;;5015647;28;20248;-87
2022/12/20 01:09:17;;;;;;;31.30;17.40;;;1.90;99.90;;;;;;5015619;28;20657;-87
2022/12/20 01:11:43;;;;;;;29.43;15.77;;;1.90;99.90;;;;;;5033106;28;20176;-87
2022/12/20 01:14:14;;;;;;;28.67;15.83;;;1.90;99.90;;;;;;5014487;28;20178;-86
2022/12/20 01:16:43;;;;;;;23.90;14.20;;;2.00;99.90;;;;;;5016648;28;20235;-87
2022/12/20 01:19:12;;;;;;;24.63;13.07;;;2.10;99.90;;;;;;5033059;28;20180;-87
2022/12/20 01:21:43;;;;;;;26.67;13.33;;;2.40;99.90;;;;;;5014413;28;20266;-87
2022/12/20 01:24:15;;;;;;;26.07;13.80;;;3.00;99.90;;;;;;5012582;28;20636;-86
2022/12/20 01:26:41;;;;;;;22.37;13.07;;;3.20;99.90;;;;;;4995417;28;20173;-87
2022/12/20 01:29:07;;;;;;;23.80;13.93;;;3.30;99.90;;;;;;4995662;28;20174;-88
2022/12/20 01:31:33;;;;;;;23.40;14.37;;;3.40;99.90;;;;;;5013170;28;20212;-88
2022/12/20 01:34:00;;;;;;;22.47;13.03;;;3.30;99.90;;;;;;4994981;28;20181;-87
2022/12/20 01:36:33;;;;;;;20.27;12.57;;;3.30;99.90;;;;;;4993940;28;20204;-87
2022/12/20 01:39:02;;;;;;;18.70;11.77;;;3.30;99.90;;;;;;4995265;28;20185;-87
2022/12/20 01:41:29;;;;;;;20.30;11.63;;;3.40;99.90;;;;;;4995474;28;20231;-88
2022/12/20 01:44:01;;;;;;;20.43;11.50;;;3.40;99.90;;;;;;5012576;28;20265;-87
2022/12/20 01:46:29;;;;;;;19.20;11.40;;;3.50;99.90;;;;;;5012934;28;20228;-87
2022/12/20 01:49:04;;;;;;;25.23;15.17;;;3.40;99.90;;;;;;5012876;28;20182;-87
2022/12/20 01:51:33;;;;;;;23.97;15.63;;;3.20;99.90;;;;;;5012942;28;20184;-87
2022/12/20 01:54:28;;;;;;;29.03;16.67;;;3.00;99.90;;;;;;4994660;28;20179;-87
2022/12/20 01:57:00;;;;;;;27.57;16.03;;;2.80;99.90;;;;;;5004393;28;20225;-87
2022/12/20 01:59:27;;;;;;;30.73;16.30;;;2.60;99.90;;;;;;5012854;28;20178;-87
2022/12/20 02:01:55;;;;;;;27.57;16.20;;;2.50;99.90;;;;;;4995381;28;20521;-87
2022/12/20 02:04:21;;;;;;;28.03;16.60;;;2.50;99.90;;;;;;4994648;28;20185;-87
2022/12/20 02:06:46;;;;;;;27.97;16.83;;;2.40;99.90;;;;;;4995319;28;20184;-87
2022/12/20 02:09:12;;;;;;;26.97;16.00;;;2.40;99.90;;;;;;5011642;28;20276;-87
2022/12/20 02:12:14;;;;;;;27.80;16.13;;;2.30;99.90;;;;;;4995025;28;20210;-87
2022/12/20 02:14:42;;;;;;;30.23;17.30;;;2.30;99.90;;;;;;4994742;28;20217;-87
2022/12/20 02:17:43;;;;;;;27.93;16.23;;;2.30;99.90;;;;;;4994940;28;20182;-87
2022/12/20 02:20:59;;;;;;;27.80;16.37;;;2.30;99.90;;;;;;5012309;28;20177;-87
2022/12/20 02:23:48;;;;;;;27.17;15.60;;;2.30;99.90;;;;;;4969737;28;20190;-87
2022/12/20 02:26:52;;;;;;;26.33;15.10;;;2.40;99.90;;;;;;4995050;28;20198;-87
2022/12/20 02:29:21;;;;;;;26.43;14.30;;;2.40;99.90;;;;;;5011390;28;20215;-87
2022/12/20 02:32:15;;;;;;;27.60;15.57;;;2.50;99.90;;;;;;4994753;28;20186;-87
2022/12/20 02:34:41;;;;;;;32.90;14.87;;;2.50;99.90;;;;;;5015028;28;20209;-87
2022/12/20 02:37:08;;;;;;;27.83;15.17;;;2.50;99.90;;;;;;5015999;28;20184;-87
2022/12/20 02:39:36;;;;;;;25.23;15.33;;;2.50;99.90;;;;;;4998701;28;20261;-87
2022/12/20 02:42:08;;;;;;;26.50;14.83;;;2.50;99.90;;;;;;4998700;28;20182;-87
2022/12/20 02:47:32;;;;;;;29.27;15.33;;;2.40;99.90;;;;;;5016268;28;20173;-87
2022/12/20 02:49:59;;;;;;;24.47;14.17;;;2.40;99.90;;;;;;4998224;28;20554;-87
2022/12/20 02:52:29;;;;;;;23.87;12.93;;;2.40;99.90;;;;;;4998132;28;20177;-86
2022/12/20 02:54:56;;;;;;;22.83;13.40;;;2.40;99.90;;;;;;4998060;28;20588;-86
2022/12/20 02:57:38;;;;;;;23.90;13.47;;;2.40;99.90;;;;;;5015788;28;20665;-87
2022/12/20 03:00:12;;;;;;;27.00;14.43;;;2.40;99.90;;;;;;4998149;28;20182;-86
2022/12/20 03:05:25;;;;;;;24.30;14.03;;;2.40;99.90;;;;;;5015813;28;20244;-87
2022/12/20 03:07:51;;;;;;;23.90;13.90;;;2.50;99.90;;;;;;5015458;28;20177;-87
2022/12/20 03:10:17;;;;;;;23.10;13.73;;;2.40;99.90;;;;;;4997862;28;20180;-87
2022/12/20 03:12:42;;;;;;;23.83;13.50;;;2.50;99.90;;;;;;5015135;28;20545;-87
2022/12/20 03:15:09;;;;;;;23.23;13.40;;;2.50;99.90;;;;;;4997601;28;20221;-87
2022/12/20 03:17:34;;;;;;;21.50;12.97;;;2.60;99.90;;;;;;5014035;28;20632;-87
2022/12/20 03:20:00;;;;;;;22.77;12.47;;;2.60;99.90;;;;;;4997670;28;20185;-87
2022/12/20 03:22:26;;;;;;;20.50;11.97;;;2.60;99.90;;;;;;4997280;28;20189;-86
2022/12/20 03:24:52;;;;;;;19.27;12.37;;;2.60;99.90;;;;;;5015086;28;20218;-87
2022/12/20 03:27:17;;;;;;;22.20;12.13;;;2.60;99.90;;;;;;5015270;28;20582;-87
2022/12/20 03:29:44;;;;;;;17.27;10.17;;;2.60;99.90;;;;;;4997794;28;20196;-87
2022/12/20 03:32:10;;;;;;;19.37;11.43;;;2.90;99.90;;;;;;5015233;28;20177;-87
2022/12/20 03:34:36;;;;;;;17.00;9.37;;;3.00;99.90;;;;;;5014336;28;20682;-87
2022/12/20 03:37:01;;;;;;;18.27;11.00;;;3.20;99.90;;;;;;4997741;28;20204;-87
2022/12/20 03:39:27;;;;;;;22.93;13.50;;;3.20;99.90;;;;;;4997338;28;20669;-87
2022/12/20 03:41:53;;;;;;;21.63;12.90;;;3.20;99.90;;;;;;4997558;28;20179;-87
2022/12/20 03:44:18;;;;;;;20.93;13.60;;;3.10;99.90;;;;;;5013548;28;20178;-87
2022/12/20 03:46:44;;;;;;;21.77;13.40;;;2.90;99.90;;;;;;4997550;28;20172;-87
2022/12/20 03:49:09;;;;;;;20.80;12.97;;;2.80;99.90;;;;;;4997197;28;20172;-87
2022/12/20 03:51:35;;;;;;;13.07;8.40;;;2.80;99.90;;;;;;4997109;28;20232;-86
2022/12/20 03:54:00;;;;;;;14.20;8.30;;;3.00;99.90;;;;;;4996844;28;20216;-87
2022/12/20 03:56:26;;;;;;;15.30;8.10;;;3.60;99.90;;;;;;4996911;28;20233;-87
2022/12/20 03:58:51;;;;;;;12.63;7.60;;;4.50;99.90;;;;;;4997366;28;20185;-86
2022/12/20 04:01:22;;;;;;;11.57;7.07;;;5.00;99.90;;;;;;5014746;28;20543;-87
2022/12/20 04:03:48;;;;;;;11.03;7.07;;;5.30;99.90;;;;;;5013919;28;20251;-87
2022/12/20 04:06:14;;;;;;;10.60;7.17;;;5.40;99.90;;;;;;4997129;28;20282;-87
2022/12/20 04:08:40;;;;;;;11.30;7.40;;;5.30;99.90;;;;;;5014606;28;20182;-87
2022/12/20 04:11:15;;;;;;;11.10;7.20;;;5.20;99.90;;;;;;5014622;28;20179;-87
2022/12/20 04:13:45;;;;;;;10.30;7.07;;;5.00;99.90;;;;;;5014074;28;20155;-87
2022/12/20 04:16:12;;;;;;;11.40;8.30;;;4.90;99.90;;;;;;4996668;28;20584;-86
2022/12/20 04:18:38;;;;;;;12.37;7.43;;;4.60;99.90;;;;;;4996560;28;20179;-85
2022/12/20 04:21:06;;;;;;;12.37;8.40;;;4.50;99.90;;;;;;5014375;28;20176;-84
2022/12/20 04:23:35;;;;;;;12.80;9.17;;;4.70;99.90;;;;;;4996017;28;20202;-84
2022/12/20 04:26:03;;;;;;;15.57;8.83;;;5.00;99.90;;;;;;5014149;28;20204;-82
2022/12/20 04:28:29;;;;;;;13.43;8.90;;;5.10;99.90;;;;;;4997003;28;20175;-83
2022/12/20 04:30:55;;;;;;;15.80;9.60;;;5.00;99.90;;;;;;4996384;28;20175;-85
2022/12/20 04:33:21;;;;;;;15.23;9.40;;;4.80;99.90;;;;;;4996193;28;20225;-84
2022/12/20 04:35:47;;;;;;;14.77;9.73;;;4.70;99.90;;;;;;5013692;28;20209;-85
2022/12/20 04:38:12;;;;;;;14.63;9.27;;;4.80;99.90;;;;;;5014247;28;20235;-86
2022/12/20 04:40:38;;;;;;;12.70;8.50;;;4.60;99.90;;;;;;4996213;28;20180;-86
2022/12/20 04:43:03;;;;;;;11.03;7.40;;;4.50;99.90;;;;;;4995610;28;20171;-85
2022/12/20 04:45:29;;;;;;;10.63;7.13;;;4.60;99.90;;;;;;5013773;28;20196;-84
2022/12/20 04:47:54;;;;;;;11.60;7.73;;;4.60;99.90;;;;;;4996054;28;20214;-88
2022/12/20 04:50:20;;;;;;;9.87;6.97;;;4.70;99.90;;;;;;4996347;28;20183;-88
2022/12/20 04:55:30;;;;;;;9.60;6.37;;;5.20;99.90;;;;;;5013519;28;20211;-85
2022/12/20 04:57:56;;;;;;;9.33;6.27;;;5.30;99.90;;;;;;5012218;28;20172;-84
2022/12/20 05:00:21;;;;;;;10.27;6.70;;;5.40;99.90;;;;;;4996106;28;20230;-85
2022/12/20 05:02:47;;;;;;;9.40;6.70;;;5.50;99.90;;;;;;4995605;28;20259;-83
2022/12/20 05:05:13;;;;;;;11.07;6.87;;;5.50;99.90;;;;;;4996046;28;20196;-83
2022/12/20 05:07:39;;;;;;;10.53;7.10;;;5.60;99.90;;;;;;4996072;28;20175;-85
2022/12/20 05:10:05;;;;;;;10.10;7.10;;;5.60;99.90;;;;;;4996018;28;20579;-85
2022/12/20 05:12:30;;;;;;;10.50;7.13;;;5.50;99.90;;;;;;4995273;28;20221;-85
2022/12/20 05:14:56;;;;;;;10.53;7.40;;;5.50;99.90;;;;;;5012703;28;20211;-85
2022/12/20 05:17:22;;;;;;;11.13;8.07;;;5.40;99.90;;;;;;4995670;28;20761;-85
2022/12/20 05:19:47;;;;;;;11.30;8.00;;;5.20;99.90;;;;;;4995856;28;20550;-85
2022/12/20 05:27:41;;;;;;;11.10;7.37;;;5.00;99.90;;;;;;5013341;28;20230;-85
2022/12/20 05:30:07;;;;;;;11.07;7.67;;;4.90;99.90;;;;;;4995661;28;20180;-84
2022/12/20 05:32:33;;;;;;;11.37;7.27;;;5.00;99.90;;;;;;5012416;28;20214;-85
2022/12/20 05:34:59;;;;;;;10.50;6.90;;;5.00;99.90;;;;;;5012950;28;20697;-85
2022/12/20 05:37:24;;;;;;;11.73;8.03;;;5.00;99.90;;;;;;5013087;28;20176;-85
2022/12/20 05:39:50;;;;;;;12.73;8.70;;;5.00;99.90;;;;;;5011598;28;20174;-86
2022/12/20 05:42:16;;;;;;;15.50;8.40;;;4.80;99.90;;;;;;5012370;28;20174;-86
2022/12/20 05:44:42;;;;;;;15.00;8.87;;;4.70;99.90;;;;;;5012947;28;20204;-86
2022/12/20 05:47:08;;;;;;;12.80;8.27;;;4.60;99.90;;;;;;4995485;28;20182;-86
2022/12/20 05:49:33;;;;;;;15.77;9.07;;;4.60;99.90;;;;;;4995136;28;20198;-86
2022/12/20 05:52:00;;;;;;;17.77;10.00;;;4.50;99.90;;;;;;5012867;28;20178;-86
2022/12/20 05:54:26;;;;;;;15.00;9.70;;;4.40;99.90;;;;;;5012019;28;20182;-85
2022/12/20 05:56:51;;;;;;;15.87;9.10;;;4.40;99.90;;;;;;5012908;28;20175;-85
2022/12/20 05:59:17;;;;;;;16.87;9.27;;;4.30;99.90;;;;;;4995046;28;20662;-85
2022/12/20 06:01:43;;;;;;;14.53;9.20;;;4.40;99.90;;;;;;4995440;28;20175;-85
2022/12/20 06:04:08;;;;;;;15.23;9.70;;;4.60;99.90;;;;;;4994955;28;20586;-85
2022/12/20 06:06:34;;;;;;;14.70;9.57;;;4.70;99.90;;;;;;4995680;28;20199;-82
2022/12/20 06:09:00;;;;;;;13.80;8.23;;;4.80;99.90;;;;;;5007639;28;20221;-85
2022/12/20 06:11:25;;;;;;;13.77;7.97;;;5.10;99.90;;;;;;5018169;28;20182;-85
2022/12/20 06:13:51;;;;;;;13.67;7.80;;;5.20;99.90;;;;;;5017653;28;20171;-85
2022/12/20 06:16:19;;;;;;;12.80;8.63;;;5.20;99.90;;;;;;5035692;28;20221;-86
2022/12/20 06:18:45;;;;;;;14.30;8.93;;;5.10;99.90;;;;;;5035874;28;20172;-85
2022/12/20 06:21:10;;;;;;;15.40;9.53;;;4.90;99.90;;;;;;5036140;28;20170;-85
2022/12/20 06:23:36;;;;;;;16.87;9.83;;;4.80;99.90;;;;;;5017396;28;20648;-86
2022/12/20 06:26:03;;;;;;;16.03;10.27;;;4.70;99.90;;;;;;5017883;28;20258;-85
2022/12/20 06:28:29;;;;;;;14.90;10.13;;;4.50;99.90;;;;;;5017901;28;20642;-86
2022/12/20 06:30:56;;;;;;;15.03;10.30;;;4.40;99.90;;;;;;5017813;28;20174;-85
2022/12/20 06:33:22;;;;;;;15.90;10.90;;;4.30;99.90;;;;;;5035093;28;20189;-85
2022/12/20 06:35:50;;;;;;;17.00;10.47;;;4.30;99.90;;;;;;5035264;28;20202;-85
2022/12/20 06:38:16;;;;;;;17.50;11.17;;;4.20;99.90;;;;;;5035650;28;20198;-85
2022/12/20 06:40:42;;;;;;;16.47;11.23;;;4.20;99.90;;;;;;5018020;28;20178;-85
2022/12/20 06:43:08;;;;;;;16.10;10.47;;;4.10;99.90;;;;;;5034924;28;20236;-85
2022/12/20 06:45:33;;;;;;;17.77;10.90;;;4.00;99.90;;;;;;5017516;28;20223;-86
2022/12/20 06:47:59;;;;;;;18.77;11.13;;;4.00;99.90;;;;;;5017526;28;20278;-86
2022/12/20 06:50:25;;;;;;;17.73;10.77;;;4.00;99.90;;;;;;5017214;28;20183;-85
2022/12/20 06:52:51;;;;;;;16.47;10.40;;;4.00;99.90;;;;;;5034530;28;20179;-85
2022/12/20 06:55:16;;;;;;;13.60;9.50;;;4.00;99.90;;;;;;5017405;28;20213;-85
2022/12/20 06:57:42;;;;;;;14.47;8.87;;;4.00;99.90;;;;;;5017339;28;20170;-83
2022/12/20 07:00:11;;;;;;;14.50;8.60;;;4.30;99.90;;;;;;5017259;28;20175;-86
2022/12/20 07:02:37;;;;;;;13.37;8.60;;;4.40;99.90;;;;;;5034614;28;20183;-85
2022/12/20 07:05:03;;;;;;;11.20;7.83;;;4.40;99.90;;;;;;5017222;28;20293;-86
2022/12/20 07:07:29;;;;;;;16.23;9.87;;;4.50;99.90;;;;;;5017116;28;20178;-85
2022/12/20 07:09:54;;;;;;;14.20;9.17;;;4.50;99.90;;;;;;5017064;28;20178;-86
2022/12/20 07:12:21;;;;;;;15.63;9.00;;;4.50;99.90;;;;;;5034410;28;20174;-86
2022/12/20 07:14:48;;;;;;;13.23;8.93;;;4.60;99.90;;;;;;5040776;22;20274;-80
2022/12/20 07:17:14;;;;;;;12.03;7.97;;;4.70;99.90;;;;;;5014343;28;20299;-83
2022/12/20 07:19:39;;;;;;;14.27;7.77;;;4.90;99.90;;;;;;5014719;28;20202;-83
2022/12/20 07:22:05;;;;;;;10.80;6.40;;;5.00;99.90;;;;;;5015931;28;20179;-84
2022/12/20 07:24:32;;;;;;;9.00;6.30;;;5.30;99.90;;;;;;4997634;28;20171;-84
2022/12/20 07:26:57;;;;;;;7.83;5.73;;;5.60;99.90;;;;;;4998124;28;20285;-84
2022/12/20 07:29:24;;;;;;;7.53;5.23;;;5.80;99.90;;;;;;5016279;28;20198;-82
2022/12/20 07:31:50;;;;;;;7.73;5.40;;;6.00;99.90;;;;;;5016496;28;20168;-85
2022/12/20 07:34:15;;;;;;;6.60;5.13;;;6.00;99.90;;;;;;5017134;28;20179;-84
2022/12/20 07:36:41;;;;;;;7.97;5.87;;;5.90;99.90;;;;;;5015154;28;20199;-82
2022/12/20 07:39:07;;;;;;;8.60;6.07;;;5.90;99.90;;;;;;5024931;28;20179;-84
2022/12/20 07:41:33;;;;;;;9.60;7.33;;;5.90;99.90;;;;;;5023342;28;20250;-84
2022/12/20 07:43:59;;;;;;;11.60;7.00;;;5.90;99.90;;;;;;5027902;28;20195;-84
2022/12/20 07:46:25;;;;;;;10.80;7.90;;;5.70;99.90;;;;;;5019442;28;20744;-83
2022/12/20 07:48:51;;;;;;;11.93;7.83;;;5.60;99.90;;;;;;5009656;28;20191;-82
2022/12/20 07:51:32;;;;;;;10.30;7.30;;;5.50;99.90;;;;;;4995648;28;20263;-85
2022/12/20 07:54:11;;;;;;;11.77;7.43;;;5.40;99.90;;;;;;5006687;28;20613;-83
2022/12/20 07:56:41;;;;;;;14.07;8.33;;;5.20;99.90;;;;;;5013010;28;20570;-84
2022/12/20 07:59:10;;;;;;;13.17;8.40;;;5.20;99.90;;;;;;5017802;28;20212;-83
2022/12/20 08:01:35;;;;;;;13.13;8.40;;;5.10;99.90;;;;;;5017573;28;20198;-83
2022/12/20 08:04:06;;;;;;;13.17;9.33;;;5.00;99.90;;;;;;5035939;28;20172;-85
2022/12/20 08:06:32;;;;;;;14.83;9.27;;;4.90;99.90;;;;;;5017856;28;20199;-82
2022/12/20 08:09:01;;;;;;;10.70;8.27;;;4.80;99.90;;;;;;4995584;28;20563;-83
2022/12/20 08:11:29;;;;;;;14.53;8.47;;;4.80;99.90;;;;;;5003975;28;20180;-82
2022/12/20 08:13:55;;;;;;;13.83;8.57;;;4.60;99.90;;;;;;4998159;28;20204;-83
2022/12/20 08:16:21;;;;;;;10.77;7.50;;;4.60;99.90;;;;;;5015467;28;20203;-82
2022/12/20 08:18:47;;;;;;;7.33;5.23;;;4.60;99.90;;;;;;4998130;28;20179;-84
2022/12/20 08:21:13;;;;;;;6.63;4.83;;;5.30;99.90;;;;;;4998760;28;20179;-84
2022/12/20 08:23:39;;;;;;;6.77;4.50;;;5.90;99.90;;;;;;5015600;28;20167;-85
2022/12/20 08:26:05;;;;;;;6.97;4.70;;;6.20;99.90;;;;;;4999551;28;20215;-84
2022/12/20 08:28:31;;;;;;;5.93;4.30;;;6.70;99.90;;;;;;4998824;28;20184;-84
2022/12/20 08:31:07;;;;;;;6.00;4.27;;;6.90;99.90;;;;;;4999670;28;20197;-84
2022/12/20 08:33:34;;;;;;;6.80;4.10;;;7.00;99.90;;;;;;5016950;28;20265;-83
2022/12/20 08:36:02;;;;;;;7.43;4.60;;;6.90;99.90;;;;;;4999434;28;20217;-86
2022/12/20 08:38:29;;;;;;;5.77;3.80;;;7.00;99.90;;;;;;5017962;28;20178;-84
2022/12/20 08:41:00;;;;;;;6.00;4.10;;;7.00;99.90;;;;;;5000318;28;20179;-84
2022/12/20 08:43:26;;;;;;;6.17;3.80;;;6.90;99.90;;;;;;4999231;28;20183;-84
2022/12/20 08:45:54;;;;;;;5.20;3.80;;;7.20;99.90;;;;;;4999166;28;20233;-85
2022/12/20 08:48:21;;;;;;;5.40;3.40;;;7.20;99.90;;;;;;5014786;28;20198;-85
2022/12/20 08:50:52;;;;;;;4.63;3.67;;;7.10;99.90;;;;;;5023363;28;20179;-85
2022/12/20 08:53:18;;;;;;;5.07;3.47;;;7.20;99.90;;;;;;5035372;28;20267;-84
2022/12/20 08:55:43;;;;;;;3.47;2.87;;;7.10;99.90;;;;;;5015610;28;20269;-84
2022/12/20 08:58:09;;;;;;;5.57;3.23;;;7.20;99.90;;;;;;5015469;28;20174;-84
2022/12/20 09:00:36;;;;;;;4.87;3.03;;;7.30;99.90;;;;;;5033228;28;20653;-84
2022/12/20 09:03:01;;;;;;;4.00;3.33;;;7.40;99.90;;;;;;5032837;28;20182;-85
2022/12/20 09:05:27;;;;;;;4.53;3.23;;;7.40;99.90;;;;;;5015364;28;20232;-84
2022/12/20 09:07:52;;;;;;;5.10;3.20;;;7.40;99.90;;;;;;5015517;28;20190;-85
2022/12/20 09:10:18;;;;;;;4.57;3.27;;;7.50;99.90;;;;;;5015493;28;20186;-84
2022/12/20 09:12:44;;;;;;;6.13;3.10;;;7.50;99.90;;;;;;5014796;28;20232;-84
2022/12/20 09:15:10;;;;;;;6.60;3.23;;;7.60;99.90;;;;;;5015194;28;20217;-86
2022/12/20 09:17:35;;;;;;;5.63;3.40;;;7.70;99.90;;;;;;5032824;28;20175;-88
2022/12/20 09:20:02;;;;;;;4.70;3.30;;;7.70;99.90;;;;;;5015462;28;20193;-84
2022/12/20 09:22:28;;;;;;;4.67;3.03;;;7.80;99.90;;;;;;5015160;28;20273;-83
2022/12/20 09:24:54;;;;;;;3.77;3.27;;;7.80;99.90;;;;;;5015319;28;20744;-84
2022/12/20 09:27:20;;;;;;;4.20;3.30;;;7.70;99.90;;;;;;5032887;28;20257;-84
2022/12/20 09:29:45;;;;;;;6.30;3.40;;;7.70;99.90;;;;;;5033182;28;20205;-84
2022/12/20 09:32:11;;;;;;;4.57;3.47;;;7.70;99.90;;;;;;5015325;28;20187;-85
2022/12/20 09:34:38;;;;;;;5.47;3.70;;;7.50;99.90;;;;;;5032904;28;20267;-86
2022/12/20 09:37:03;;;;;;;6.20;3.63;;;7.40;99.90;;;;;;5015328;28;20205;-84
2022/12/20 09:39:29;;;;;;;4.80;3.67;;;7.40;99.90;;;;;;5015249;28;20206;-83
2022/12/20 09:41:56;;;;;;;5.63;3.13;;;7.50;99.90;;;;;;5014517;28;20171;-84
2022/12/20 09:44:26;;;;;;;5.50;3.90;;;7.60;99.90;;;;;;5031699;28;20178;-83
2022/12/20 09:46:55;;;;;;;5.70;3.63;;;7.70;99.90;;;;;;5032527;28;20229;-83
2022/12/20 09:49:23;;;;;;;4.90;3.90;;;;;;;;;;5032403;28;20189;-85
2022/12/20 09:52:28;;;;;;;6.23;4.37;;;7.80;99.90;;;;;;5032392;28;20191;-83
2022/12/20 09:55:23;;;;;;;5.93;4.07;;;7.80;99.90;;;;;;4985819;28;20296;-83
2022/12/20 09:58:07;;;;;;;5.53;4.30;;;7.80;99.90;;;;;;5032574;28;20174;-83
2022/12/20 10:00:41;;;;;;;7.77;4.20;;;7.80;99.90;;;;;;5023103;28;20175;-83
2022/12/20 10:03:20;;;;;;;7.37;4.90;;;7.80;99.90;;;;;;5005451;28;20182;-83
2022/12/20 10:06:05;;;;;;;7.00;4.47;;;7.90;99.90;;;;;;5020562;28;20203;-83
2022/12/20 10:08:42;;;;;;;7.10;3.93;;;7.80;99.90;;;;;;5015076;28;20187;-83
2022/12/20 10:11:33;;;;;;;6.33;4.17;;;8.00;99.90;;;;;;5012483;28;20257;-83
2022/12/20 10:14:23;;;;;;;6.03;4.37;;;7.90;99.90;;;;;;5012210;28;20183;-83
2022/12/20 10:17:04;;;;;;;7.00;4.10;;;8.00;99.90;;;;;;5012617;28;20215;-81
2022/12/20 10:19:47;;;;;;;6.10;3.93;;;7.90;99.90;;;;;;5012773;28;20186;-82
2022/12/20 10:22:36;;;;;;;6.50;4.27;;;8.00;99.90;;;;;;4994740;28;20176;-83
2022/12/20 10:25:15;;;;;;;5.73;4.10;;;8.00;99.90;;;;;;5002238;28;20246;-82
2022/12/20 10:27:42;;;;;;;6.27;4.23;;;8.00;99.90;;;;;;4994982;28;20489;-82
2022/12/20 10:30:17;;;;;;;6.03;4.60;;;8.00;99.90;;;;;;4994781;28;20247;-82
2022/12/20 10:32:48;;;;;;;7.50;4.17;;;8.00;99.90;;;;;;5012279;28;20205;-82
2022/12/20 10:35:13;;;;;;;5.07;3.90;;;8.00;99.90;;;;;;4995059;28;20202;-83
2022/12/20 10:37:55;;;;;;;6.57;4.43;;;7.90;99.90;;;;;;5019777;28;20191;-82
2022/12/20 10:40:29;;;;;;;6.53;4.20;;;7.90;99.90;;;;;;5014920;28;20549;-83
2022/12/20 10:42:55;;;;;;;5.80;4.40;;;7.90;99.90;;;;;;5023997;28;20194;-82
2022/12/20 10:45:20;;;;;;;6.00;4.33;;;7.90;99.90;;;;;;5015202;28;20206;-82
2022/12/20 10:47:49;;;;;;;6.40;4.60;;;8.00;99.90;;;;;;5033021;28;20188;-83
2022/12/20 10:50:19;;;;;;;6.30;4.27;;;8.00;99.90;;;;;;5033111;28;20190;-83
2022/12/20 10:53:01;;;;;;;6.20;4.60;;;8.00;99.90;;;;;;5032089;28;20200;-83
2022/12/20 10:55:34;;;;;;;7.77;4.37;;;8.00;99.90;;;;;;5018354;28;20293;-83
2022/12/20 10:58:05;;;;;;;7.93;4.80;;;7.90;99.90;;;;;;5018800;28;20248;-83
2022/12/20 11:00:32;;;;;;;8.63;4.80;;;7.80;99.90;;;;;;5018905;28;20225;-82
2022/12/20 11:03:17;;;;;;;6.67;4.50;;;7.80;99.90;;;;;;5035884;28;20550;-83
2022/12/20 11:06:14;;;;;;;6.50;4.37;;;7.70;99.90;;;;;;5019202;28;20695;-83
2022/12/20 11:08:39;;;;;;;7.33;4.80;;;7.70;99.90;;;;;;5018784;28;20175;-83
2022/12/20 11:11:17;;;;;;;6.50;4.47;;;7.60;99.90;;;;;;5018792;28;20174;-83
2022/12/20 11:13:45;;;;;;;9.03;5.30;;;7.50;99.90;;;;;;5018861;28;20261;-83
2022/12/20 11:16:35;;;;;;;8.50;5.57;;;7.40;99.90;;;;;;5036049;28;20219;-83
2022/12/20 11:19:19;;;;;;;8.20;5.80;;;7.20;99.90;;;;;;5018758;28;20275;-83
2022/12/20 11:22:06;;;;;;;10.67;6.70;;;7.10;99.90;;;;;;5036659;28;20173;-83
2022/12/20 11:24:56;;;;;;;9.63;6.80;;;7.00;99.90;;;;;;5018045;28;20167;-83
2022/12/20 11:27:49;;;;;;;11.27;7.27;;;6.90;99.90;;;;;;5018601;28;20171;-83
2022/12/20 11:30:38;;;;;;;11.37;8.10;;;6.70;99.90;;;;;;5036494;28;20189;-83
2022/12/20 11:33:45;;;;;;;12.60;8.93;;;6.50;99.90;;;;;;5004608;28;20540;-83
2022/12/20 11:36:53;;;;;;;19.57;12.27;;;6.40;99.90;;;;;;5016816;28;20221;-83
2022/12/20 11:39:38;;;;;;;17.27;10.80;;;6.30;99.90;;;;;;5017379;28;20209;-83
2022/12/20 11:42:07;;;;;;;14.97;10.17;;;6.20;99.90;;;;;;5017270;28;20171;-85
2022/12/20 11:44:57;;;;;;;15.30;10.27;;;6.10;99.90;;;;;;5033845;28;20166;-86
2022/12/20 11:47:32;;;;;;;14.13;9.90;;;6.00;99.90;;;;;;5017572;28;20667;-80
2022/12/20 11:50:32;;;;;;;12.63;7.70;;;6.10;99.90;;;;;;5035404;28;20183;-80
2022/12/20 11:53:06;;;;;;;14.67;9.00;;;6.50;99.90;;;;;;5016670;28;20320;-80
2022/12/20 11:55:40;;;;;;;11.80;8.43;;;7.00;99.90;;;;;;5017284;28;20264;-80
2022/12/20 11:58:15;;;;;;;12.67;9.03;;;7.30;99.90;;;;;;5034971;28;20178;-84
2022/12/20 12:00:53;;;;;;;15.87;10.00;;;7.40;99.90;;;;;;5034588;28;20170;-83
2022/12/20 12:03:27;;;;;;;14.53;9.43;;;7.10;99.90;;;;;;5034015;28;20175;-83
2022/12/20 12:06:05;;;;;;;13.37;9.07;;;6.70;99.90;;;;;;5015895;28;20202;-84
2022/12/20 12:08:37;;;;;;;12.73;8.30;;;6.50;99.90;;;;;;5013010;28;20191;-83
2022/12/20 12:11:22;;;;;;;15.30;8.83;;;6.30;99.90;;;;;;5024796;28;20178;-82
2022/12/20 12:13:49;;;;;;;11.83;8.40;;;6.20;99.90;;;;;;5015838;28;20174;-82
2022/12/20 12:16:31;;;;;;;16.20;9.00;;;6.10;99.90;;;;;;5033844;28;20215;-84
2022/12/20 12:18:59;;;;;;;12.73;8.67;;;6.10;99.90;;;;;;5034317;28;20177;-83
2022/12/20 12:21:50;;;;;;;11.83;8.90;;;6.00;99.90;;;;;;5034199;28;20182;-83
2022/12/20 12:24:30;;;;;;;12.53;7.50;;;6.00;99.90;;;;;;5005095;28;20181;-84
2022/12/20 12:26:58;;;;;;;12.30;7.97;;;5.90;99.90;;;;;;5033762;28;20683;-83
2022/12/20 12:29:24;;;;;;;12.80;8.30;;;5.90;99.90;;;;;;5016339;28;20256;-82
2022/12/20 12:32:01;;;;;;;12.83;8.30;;;5.90;99.90;;;;;;5015921;28;20320;-83
2022/12/20 12:34:29;;;;;;;12.90;8.60;;;5.90;99.90;;;;;;5015493;28;20178;-82
2022/12/20 12:37:01;;;;;;;12.47;9.03;;;5.90;99.90;;;;;;5015878;28;20197;-82
2022/12/20 12:39:57;;;;;;;15.47;9.33;;;5.90;99.90;;;;;;5019176;28;20209;-83
2022/12/20 12:42:25;;;;;;;14.13;8.67;;;5.80;99.90;;;;;;5024101;28;20181;-83
2022/12/20 12:44:56;;;;;;;10.87;8.33;;;5.80;99.90;;;;;;5028798;28;20220;-82
2022/12/20 12:47:49;;;;;;;10.33;8.17;;;5.80;99.90;;;;;;4996123;28;20190;-82
2022/12/20 12:50:34;;;;;;;10.97;8.07;;;5.80;99.90;;;;;;4990018;28;20186;-82
2022/12/20 12:53:07;;;;;;;10.93;7.37;;;5.80;99.90;;;;;;4995432;28;20258;-83
2022/12/20 12:55:42;;;;;;;9.90;6.20;;;5.80;99.90;;;;;;4995806;28;20237;-83
2022/12/20 12:58:23;;;;;;;10.17;6.07;;;6.00;99.90;;;;;;4982199;28;20178;-82
2022/12/20 13:00:55;;;;;;;9.70;6.17;;;6.20;99.90;;;;;;4976582;28;20174;-82
2022/12/20 13:03:42;;;;;;;11.17;7.80;;;6.30;99.90;;;;;;4975712;28;20179;-82
2022/12/20 13:06:23;;;;;;;10.23;7.73;;;6.20;99.90;;;;;;4976622;28;20565;-84
2022/12/20 13:09:21;;;;;;;10.37;7.47;;;6.10;99.90;;;;;;4976644;28;20174;-83
2022/12/20 13:11:47;;;;;;;12.00;9.10;;;6.10;99.90;;;;;;4993792;28;20222;-82
2022/12/20 13:14:17;;;;;;;13.87;9.13;;;6.00;99.90;;;;;;4975771;28;20719;-83
2022/12/20 13:16:46;;;;;;;12.50;9.70;;;6.00;99.90;;;;;;5059078;22;20239;-83